Time;durP1;ratioP1;P1;durP2;ratioP2;P2;SDS_P1;SDS_P2;PMS_P1;PMS_P2;Temp;Humidity;BMP_temperature;BMP_pressure;BME280_temperature;BME280_humidity;BME280_pressure;Samples;Min_cycle;Max_cycle;Signal;HPM_P1;HPM_P2
2021/08/06 00:01:09;;;;;;;4.53;2.50;;;18.30;99.50;;;;;;5034351;28;20029;-74
2021/08/06 00:03:35;;;;;;;7.30;2.33;;;18.30;99.60;;;;;;5016650;28;20506;-77
2021/08/06 00:06:02;;;;;;;5.35;2.83;;;18.30;99.60;;;;;;5034310;28;20049;-75
2021/08/06 00:08:28;;;;;;;4.70;2.53;;;18.30;99.60;;;;;;5034295;28;20037;-75
2021/08/06 00:10:54;;;;;;;5.93;2.58;;;18.40;99.50;;;;;;5034276;28;20025;-75
2021/08/06 00:13:19;;;;;;;6.85;2.85;;;18.40;99.50;;;;;;5034290;28;20434;-76
2021/08/06 00:15:45;;;;;;;6.55;2.88;;;18.40;99.40;;;;;;5032747;28;20204;-76
2021/08/06 00:18:11;;;;;;;7.40;2.70;;;18.40;99.40;;;;;;5032802;28;20037;-75
2021/08/06 00:20:37;;;;;;;6.18;3.17;;;18.30;99.40;;;;;;5034127;28;20024;-77
2021/08/06 00:23:04;;;;;;;8.68;3.10;;;18.30;99.40;;;;;;5032787;28;20037;-76
2021/08/06 00:25:30;;;;;;;6.88;3.35;;;18.30;99.50;;;;;;5032814;28;20484;-75
2021/08/06 00:27:56;;;;;;;6.57;3.40;;;18.30;99.50;;;;;;5032597;28;20116;-75
2021/08/06 00:30:22;;;;;;;5.40;2.88;;;18.30;99.60;;;;;;5032782;28;20108;-76
2021/08/06 00:32:47;;;;;;;11.18;3.25;;;18.20;99.60;;;;;;5033789;28;20068;-76
2021/08/06 00:35:13;;;;;;;6.85;2.70;;;18.20;99.60;;;;;;5032503;28;20064;-76
2021/08/06 00:37:39;;;;;;;5.32;3.05;;;18.20;99.60;;;;;;5032518;28;20456;-75
2021/08/06 00:40:05;;;;;;;9.07;3.50;;;18.20;99.60;;;;;;5033068;28;20030;-76
2021/08/06 00:42:31;;;;;;;8.57;3.22;;;18.10;99.60;;;;;;5033811;28;20037;-77
2021/08/06 00:44:57;;;;;;;5.75;3.35;;;18.10;99.70;;;;;;5033631;28;20593;-77
2021/08/06 00:47:23;;;;;;;8.13;3.40;;;18.10;99.80;;;;;;5032215;28;20068;-76
2021/08/06 00:49:49;;;;;;;6.00;3.55;;;18.00;99.80;;;;;;5032416;28;20117;-76
2021/08/06 00:52:16;;;;;;;8.55;3.67;;;18.00;99.80;;;;;;5015875;28;20041;-77
2021/08/06 00:54:42;;;;;;;7.75;3.40;;;18.00;99.90;;;;;;5032129;28;20396;-76
2021/08/06 00:57:10;;;;;;;;;;;18.00;99.90;;;;;;5033899;28;20036;-76
2021/08/06 00:59:36;;;;;;;10.50;4.43;;;18.10;99.90;;;;;;5032122;28;20535;-75
2021/08/06 01:02:18;;;;;;;6.85;3.95;;;18.10;99.80;;;;;;5033238;28;20048;-77
2021/08/06 01:04:51;;;;;;;7.30;3.28;;;18.10;99.90;;;;;;5033529;28;20057;-77
2021/08/06 01:07:23;;;;;;;7.18;3.47;;;18.10;99.90;;;;;;5032952;28;20052;-76
2021/08/06 01:09:59;;;;;;;8.20;3.45;;;18.10;99.90;;;;;;5033271;28;20025;-76
2021/08/06 01:12:32;;;;;;;;;;;18.10;99.90;;;;;;5033671;28;20025;-75
2021/08/06 01:15:02;;;;;;;7.40;3.45;;;18.10;99.90;;;;;;5032926;28;19916;-76
2021/08/06 01:17:32;;;;;;;7.93;3.92;;;18.10;99.80;;;;;;5031838;28;20037;-78
2021/08/06 01:20:06;;;;;;;8.48;4.05;;;18.00;99.90;;;;;;5031643;28;20483;-74
2021/08/06 01:22:44;;;;;;;8.93;3.90;;;18.00;99.90;;;;;;5032996;28;20023;-75
2021/08/06 01:25:29;;;;;;;7.18;3.60;;;18.00;99.90;;;;;;5032944;28;20025;-75
2021/08/06 01:27:55;;;;;;;10.52;4.28;;;18.00;99.90;;;;;;5031623;28;20061;-76
2021/08/06 01:30:21;;;;;;;;;;;18.00;99.90;;;;;;5033290;28;20038;-76
2021/08/06 01:32:47;;;;;;;7.30;3.50;;;18.00;99.90;;;;;;5032795;28;19966;-75
2021/08/06 01:35:12;;;;;;;8.48;4.18;;;18.00;99.90;;;;;;5014905;28;20037;-76
2021/08/06 01:37:38;;;;;;;10.75;4.00;;;18.00;99.90;;;;;;5032658;28;20388;-76
2021/08/06 01:40:07;;;;;;;9.07;4.10;;;18.00;99.90;;;;;;5031415;28;20029;-76
2021/08/06 01:42:45;;;;;;;8.93;3.85;;;18.00;99.90;;;;;;5031328;28;20497;-77
2021/08/06 01:45:17;;;;;;;7.43;3.85;;;18.00;99.90;;;;;;5032576;28;20041;-75
2021/08/06 01:47:46;;;;;;;10.57;5.07;;;18.00;99.90;;;;;;5032399;28;20380;-76
2021/08/06 01:50:17;;;;;;;8.13;4.10;;;18.00;99.90;;;;;;5030939;28;20029;-77
2021/08/06 01:52:59;;;;;;;5.43;3.28;;;18.00;99.90;;;;;;5031775;28;20069;-76
2021/08/06 01:55:38;;;;;;;5.82;3.17;;;17.90;99.90;;;;;;5030991;28;20052;-77
2021/08/06 01:58:04;;;;;;;6.07;3.30;;;17.90;99.90;;;;;;5030959;28;20061;-75
2021/08/06 02:00:30;;;;;;;5.65;2.92;;;17.90;99.90;;;;;;5031114;28;20022;-76
2021/08/06 02:02:56;;;;;;;4.78;2.97;;;17.90;99.90;;;;;;5032258;28;20087;-75
2021/08/06 02:05:22;;;;;;;7.45;3.35;;;17.90;99.90;;;;;;5030755;28;20053;-76
2021/08/06 02:07:48;;;;;;;6.10;3.33;;;17.90;99.90;;;;;;5032235;28;20038;-75
2021/08/06 02:10:15;;;;;;;5.35;3.00;;;17.90;99.90;;;;;;5030922;28;20107;-76
2021/08/06 02:12:42;;;;;;;5.75;3.20;;;17.90;99.90;;;;;;5032036;28;20357;-77
2021/08/06 02:15:09;;;;;;;6.53;3.60;;;17.90;99.90;;;;;;5030580;28;20040;-75
2021/08/06 02:17:36;;;;;;;6.30;3.80;;;17.90;99.90;;;;;;5032024;28;20079;-76
2021/08/06 02:20:06;;;;;;;8.70;3.80;;;17.90;99.90;;;;;;5031851;28;20116;-75
2021/08/06 02:22:33;;;;;;;9.02;4.15;;;17.80;99.90;;;;;;5031939;28;20030;-75
2021/08/06 02:25:01;;;;;;;9.65;4.28;;;17.80;99.90;;;;;;5030485;28;20030;-77
2021/08/06 02:27:28;;;;;;;7.20;3.47;;;17.90;99.90;;;;;;5032076;28;20083;-76
2021/08/06 02:29:57;;;;;;;7.80;4.10;;;17.90;99.90;;;;;;5031703;28;20373;-76
2021/08/06 02:32:24;;;;;;;6.07;3.50;;;17.90;99.90;;;;;;5030436;28;20084;-77
2021/08/06 02:34:50;;;;;;;6.50;3.28;;;17.80;99.90;;;;;;5030353;28;20025;-76
2021/08/06 02:37:16;;;;;;;6.10;3.33;;;17.80;99.90;;;;;;5030161;28;20033;-76
2021/08/06 02:39:42;;;;;;;7.15;3.60;;;17.80;99.90;;;;;;5031530;28;20021;-76
2021/08/06 02:42:07;;;;;;;6.40;2.88;;;17.80;99.90;;;;;;5014117;28;20034;-76
2021/08/06 02:44:37;;;;;;;5.85;2.83;;;17.80;99.90;;;;;;5031575;28;20075;-76
2021/08/06 02:47:04;;;;;;;5.80;2.70;;;17.80;99.90;;;;;;5031394;28;20018;-77
2021/08/06 02:49:33;;;;;;;5.13;2.53;;;17.70;99.90;;;;;;5031365;28;20105;-76
2021/08/06 02:52:00;;;;;;;6.45;3.15;;;17.70;99.90;;;;;;5031363;28;20053;-75
2021/08/06 02:54:25;;;;;;;6.68;3.00;;;17.70;99.90;;;;;;5031294;28;20095;-76
2021/08/06 02:56:51;;;;;;;7.35;3.63;;;17.60;99.90;;;;;;5031262;28;20033;-76
2021/08/06 02:59:17;;;;;;;6.78;3.55;;;17.60;99.90;;;;;;5013632;28;20384;-77
2021/08/06 03:01:43;;;;;;;8.05;4.03;;;17.60;99.90;;;;;;5013481;28;20128;-76
2021/08/06 03:04:08;;;;;;;8.65;4.00;;;17.60;99.90;;;;;;5031038;28;20030;-75
2021/08/06 03:06:34;;;;;;;10.38;4.95;;;17.60;99.90;;;;;;5029844;28;20057;-75
2021/08/06 03:09:00;;;;;;;9.15;4.20;;;17.60;99.90;;;;;;5029823;28;20492;-76
2021/08/06 03:11:26;;;;;;;8.45;3.30;;;17.50;99.90;;;;;;5031541;28;20064;-76
2021/08/06 03:13:51;;;;;;;7.57;3.28;;;17.60;99.90;;;;;;5031178;28;20025;-76
2021/08/06 03:16:17;;;;;;;5.07;2.75;;;17.60;99.90;;;;;;5029765;28;20029;-77
2021/08/06 03:18:43;;;;;;;8.02;3.22;;;17.60;99.90;;;;;;5031128;28;20091;-75
2021/08/06 03:21:08;;;;;;;5.07;2.22;;;17.60;99.90;;;;;;5029810;28;20128;-76
2021/08/06 03:23:34;;;;;;;5.88;3.00;;;17.70;99.90;;;;;;5029997;28;20041;-76
2021/08/06 03:26:00;;;;;;;5.88;2.50;;;17.60;99.90;;;;;;5013431;28;20033;-76
2021/08/06 03:28:25;;;;;;;5.30;2.83;;;17.60;99.90;;;;;;5031116;28;20034;-76
2021/08/06 03:30:53;;;;;;;8.75;3.33;;;17.50;99.90;;;;;;5030081;28;20049;-77
2021/08/06 03:33:19;;;;;;;11.40;2.97;;;17.60;99.90;;;;;;5029735;28;20037;-76
2021/08/06 03:35:45;;;;;;;9.65;3.85;;;17.60;99.90;;;;;;5030953;28;20034;-76
2021/08/06 03:38:24;;;;;;;5.47;2.50;;;17.60;99.90;;;;;;5030910;28;20396;-76
2021/08/06 03:40:51;;;;;;;5.22;2.63;;;17.50;99.90;;;;;;5031079;28;20021;-75
2021/08/06 03:43:17;;;;;;;8.85;2.35;;;17.50;99.90;;;;;;5029655;28;20431;-77
2021/08/06 03:45:43;;;;;;;;;;;17.50;99.90;;;;;;5031361;28;20121;-76
2021/08/06 03:48:09;;;;;;;5.60;2.10;;;17.50;99.90;;;;;;5030900;28;20000;-78
2021/08/06 03:50:36;;;;;;;6.07;2.17;;;17.50;99.90;;;;;;5030812;28;20168;-75
2021/08/06 03:53:02;;;;;;;6.25;2.00;;;17.40;99.90;;;;;;5029313;28;20072;-76
2021/08/06 03:55:28;;;;;;;;;;;17.40;99.90;;;;;;5029735;28;20084;-76
2021/08/06 03:57:56;;;;;;;6.45;1.90;;;17.40;99.90;;;;;;5030743;28;20291;-77
2021/08/06 04:00:23;;;;;;;6.82;1.80;;;17.40;99.90;;;;;;5030618;28;20104;-75
2021/08/06 04:02:49;;;;;;;6.60;2.22;;;17.40;99.90;;;;;;5030657;28;20021;-75
2021/08/06 04:05:16;;;;;;;4.57;1.73;;;17.40;99.90;;;;;;5029310;28;20053;-75
2021/08/06 04:07:42;;;;;;;5.85;2.28;;;17.40;99.90;;;;;;5030710;28;20025;-77
2021/08/06 04:10:10;;;;;;;5.18;1.65;;;17.40;99.90;;;;;;5030664;28;20353;-76
2021/08/06 04:12:35;;;;;;;5.85;1.67;;;17.40;99.90;;;;;;5030584;28;20079;-75
2021/08/06 04:15:02;;;;;;;4.35;1.63;;;17.40;99.90;;;;;;5030910;28;20480;-76
2021/08/06 04:17:27;;;;;;;;;;;17.40;99.90;;;;;;5033252;28;20057;-76
2021/08/06 04:19:53;;;;;;;5.20;1.88;;;17.40;99.90;;;;;;5016575;28;19944;-77
2021/08/06 04:22:18;;;;;;;6.70;1.85;;;17.30;99.90;;;;;;5034108;28;20025;-75
2021/08/06 04:24:44;;;;;;;5.47;1.60;;;17.20;99.90;;;;;;5032826;28;20388;-77
2021/08/06 04:27:10;;;;;;;4.95;1.42;;;17.10;99.90;;;;;;5032621;28;20029;-77
2021/08/06 04:29:35;;;;;;;8.20;1.50;;;17.10;99.90;;;;;;5032673;28;20079;-76
2021/08/06 04:32:01;;;;;;;4.43;1.60;;;17.00;99.90;;;;;;5032721;28;20030;-76
2021/08/06 04:34:27;;;;;;;9.43;1.50;;;16.90;99.90;;;;;;5032511;28;20034;-77
2021/08/06 04:36:53;;;;;;;4.50;1.63;;;16.80;99.90;;;;;;5032325;28;20122;-77
2021/08/06 04:39:20;;;;;;;5.00;1.30;;;16.80;99.90;;;;;;5033746;28;20034;-77
2021/08/06 04:41:48;;;;;;;5.75;1.73;;;16.80;99.90;;;;;;5033735;28;20048;-76
2021/08/06 04:44:14;;;;;;;4.60;1.58;;;16.80;99.90;;;;;;5033723;28;20400;-76
2021/08/06 04:46:40;;;;;;;6.90;1.67;;;16.80;99.90;;;;;;5032350;28;20034;-78
2021/08/06 04:49:05;;;;;;;4.82;1.67;;;16.80;99.90;;;;;;5033525;28;20037;-76
2021/08/06 04:51:31;;;;;;;3.65;1.40;;;16.80;99.90;;;;;;5015816;28;20033;-75
2021/08/06 04:53:57;;;;;;;5.43;1.50;;;16.80;99.90;;;;;;5032261;28;20037;-77
2021/08/06 04:56:22;;;;;;;3.92;1.23;;;16.80;99.90;;;;;;5032097;28;20037;-77
2021/08/06 04:58:48;;;;;;;4.57;1.30;;;16.80;99.90;;;;;;5032119;28;20030;-77
2021/08/06 05:01:14;;;;;;;4.55;1.20;;;16.80;99.90;;;;;;5033501;28;20037;-78
2021/08/06 05:03:39;;;;;;;3.95;1.60;;;16.80;99.90;;;;;;5015547;28;20037;-76
2021/08/06 05:06:05;;;;;;;4.05;1.40;;;16.90;99.90;;;;;;5033080;28;20049;-76
2021/08/06 05:08:31;;;;;;;3.45;1.30;;;16.90;99.90;;;;;;5032041;28;20065;-76
2021/08/06 05:10:56;;;;;;;4.13;1.38;;;16.90;99.90;;;;;;5032012;28;20083;-76
2021/08/06 05:13:22;;;;;;;2.95;1.13;;;16.90;99.90;;;;;;5015411;28;20041;-77
2021/08/06 05:15:48;;;;;;;4.40;1.83;;;16.90;99.90;;;;;;5032910;28;20065;-77
2021/08/06 05:18:13;;;;;;;3.80;1.35;;;16.90;99.90;;;;;;5031753;28;20550;-76
2021/08/06 05:20:39;;;;;;;4.25;1.30;;;16.90;99.90;;;;;;5033014;28;20029;-77
2021/08/06 05:23:05;;;;;;;4.18;1.40;;;16.80;99.90;;;;;;5031713;28;20045;-78
2021/08/06 05:25:31;;;;;;;4.40;1.10;;;16.80;99.90;;;;;;5032679;28;20091;-77
2021/08/06 05:27:57;;;;;;;2.42;1.00;;;16.70;99.90;;;;;;5032626;28;20038;-76
2021/08/06 05:30:23;;;;;;;3.22;0.85;;;16.70;99.90;;;;;;5031767;28;20033;-77
2021/08/06 05:32:49;;;;;;;5.15;1.30;;;16.70;99.90;;;;;;5032705;28;20079;-77
2021/08/06 05:35:15;;;;;;;3.65;0.82;;;16.60;99.90;;;;;;5032694;28;20087;-77
2021/08/06 05:37:41;;;;;;;;;;;16.70;99.90;;;;;;5031846;28;20026;-77
2021/08/06 05:40:07;;;;;;;4.43;1.10;;;16.70;99.90;;;;;;5031315;28;19909;-78
2021/08/06 05:42:33;;;;;;;4.70;0.90;;;16.60;99.90;;;;;;5031413;28;20381;-78
2021/08/06 05:44:59;;;;;;;2.85;0.90;;;16.60;99.90;;;;;;5032429;28;20040;-78
2021/08/06 05:47:24;;;;;;;2.28;0.68;;;16.60;99.90;;;;;;5014500;28;20041;-77
2021/08/06 05:49:50;;;;;;;3.38;1.45;;;16.60;99.90;;;;;;5031086;28;20034;-77
2021/08/06 05:52:16;;;;;;;1.95;0.70;;;16.60;99.90;;;;;;5032212;28;20187;-77
2021/08/06 05:54:42;;;;;;;;;;;16.60;99.90;;;;;;5030965;28;20029;-77
2021/08/06 05:57:07;;;;;;;3.92;0.85;;;16.60;99.90;;;;;;5030482;28;20363;-77
2021/08/06 05:59:33;;;;;;;3.25;0.80;;;16.60;99.90;;;;;;5030744;28;20507;-78
2021/08/06 06:01:59;;;;;;;3.90;1.27;;;16.60;99.90;;;;;;5032089;28;20030;-77
2021/08/06 06:04:24;;;;;;;4.68;1.60;;;16.60;99.90;;;;;;5030839;28;20068;-77
2021/08/06 06:06:50;;;;;;;4.88;1.58;;;16.60;99.90;;;;;;5030738;28;20054;-77
2021/08/06 06:09:16;;;;;;;3.47;1.40;;;16.60;99.90;;;;;;5032159;28;20029;-77
2021/08/06 06:11:41;;;;;;;3.53;1.52;;;16.60;99.90;;;;;;5030650;28;20033;-78
2021/08/06 06:14:07;;;;;;;4.60;1.40;;;16.60;99.90;;;;;;5014307;28;20057;-79
2021/08/06 06:16:33;;;;;;;2.65;0.90;;;16.60;99.90;;;;;;5031656;28;20029;-78
2021/08/06 06:18:58;;;;;;;2.85;1.10;;;16.60;99.90;;;;;;5031749;28;20042;-77
2021/08/06 06:21:24;;;;;;;3.22;0.80;;;16.60;99.90;;;;;;5031599;28;20029;-78
2021/08/06 06:23:50;;;;;;;3.80;0.95;;;16.70;99.90;;;;;;5030872;28;20033;-77
2021/08/06 06:26:16;;;;;;;3.28;1.25;;;16.70;99.90;;;;;;5013864;28;20041;-76
2021/08/06 06:28:41;;;;;;;3.47;1.10;;;16.70;99.90;;;;;;5031510;28;20425;-77
2021/08/06 06:31:07;;;;;;;2.95;1.00;;;16.80;99.90;;;;;;5031504;28;20033;-77
2021/08/06 06:33:33;;;;;;;3.45;1.00;;;16.70;99.90;;;;;;5030359;28;20041;-77
2021/08/06 06:35:59;;;;;;;3.83;1.10;;;16.80;99.90;;;;;;5031394;28;20408;-78
2021/08/06 06:38:24;;;;;;;6.53;1.55;;;16.80;99.90;;;;;;5029798;28;20037;-76
2021/08/06 06:40:50;;;;;;;5.80;1.20;;;16.80;99.90;;;;;;5030180;28;20107;-77
2021/08/06 06:43:17;;;;;;;4.88;1.25;;;16.80;99.90;;;;;;5013817;28;20146;-78
2021/08/06 06:45:42;;;;;;;4.50;1.30;;;16.80;99.90;;;;;;5030891;28;20029;-77
2021/08/06 06:48:09;;;;;;;4.57;1.27;;;16.80;99.90;;;;;;5031165;28;20034;-78
2021/08/06 06:50:35;;;;;;;4.45;1.10;;;16.90;99.90;;;;;;5031377;28;20099;-76
2021/08/06 06:53:01;;;;;;;;;;;16.90;99.90;;;;;;5031731;28;20037;-79
2021/08/06 06:55:27;;;;;;;4.13;1.10;;;16.90;99.90;;;;;;5029894;28;19917;-75
2021/08/06 06:57:56;;;;;;;5.72;1.45;;;17.00;99.90;;;;;;5031218;28;20542;-75
2021/08/06 07:00:24;;;;;;;5.22;1.58;;;17.00;99.90;;;;;;5031031;28;20044;-76
2021/08/06 07:02:50;;;;;;;4.68;1.65;;;17.00;99.90;;;;;;5031069;28;20032;-76
2021/08/06 07:05:18;;;;;;;5.47;1.60;;;17.00;99.90;;;;;;5030759;28;20443;-76
2021/08/06 07:07:44;;;;;;;6.47;1.77;;;17.10;99.90;;;;;;5030956;28;20040;-75
2021/08/06 07:10:10;;;;;;;7.28;1.67;;;17.10;99.90;;;;;;5029453;28;20033;-74
2021/08/06 07:12:38;;;;;;;5.82;1.65;;;17.10;99.90;;;;;;5029622;28;20033;-77
2021/08/06 07:15:06;;;;;;;5.55;1.88;;;17.10;99.90;;;;;;5030827;28;20052;-76
2021/08/06 07:17:32;;;;;;;7.57;1.83;;;17.10;99.90;;;;;;5029671;28;20028;-75
2021/08/06 07:19:58;;;;;;;9.52;2.50;;;17.10;99.90;;;;;;5030968;28;20557;-76
2021/08/06 07:22:24;;;;;;;7.07;1.63;;;17.10;99.90;;;;;;5030771;28;20026;-76
2021/08/06 07:24:50;;;;;;;9.40;2.17;;;17.10;99.90;;;;;;5031055;28;20044;-77
2021/08/06 07:27:15;;;;;;;6.40;1.63;;;17.20;99.90;;;;;;5030772;28;20408;-75
2021/08/06 07:29:42;;;;;;;10.00;2.13;;;17.20;99.90;;;;;;5029474;28;20037;-76
2021/08/06 07:32:08;;;;;;;9.75;2.35;;;17.20;99.90;;;;;;5031079;28;20112;-75
2021/08/06 07:34:33;;;;;;;7.07;1.92;;;17.20;99.90;;;;;;5031031;28;20100;-75
2021/08/06 07:36:59;;;;;;;8.45;2.15;;;17.20;99.90;;;;;;5030590;28;20460;-76
2021/08/06 07:39:25;;;;;;;9.73;2.10;;;17.30;99.90;;;;;;5013163;28;20037;-76
2021/08/06 07:41:51;;;;;;;7.05;2.65;;;17.30;99.90;;;;;;5029295;28;20041;-77
2021/08/06 07:44:16;;;;;;;7.20;1.92;;;17.40;99.90;;;;;;5030562;28;20053;-76
2021/08/06 07:46:42;;;;;;;8.07;2.42;;;17.50;99.90;;;;;;5029296;28;20041;-76
2021/08/06 07:49:08;;;;;;;6.10;1.83;;;17.60;99.70;;;;;;5029393;28;20664;-77
2021/08/06 07:51:34;;;;;;;5.68;1.92;;;17.70;99.40;;;;;;5034155;28;20357;-77
2021/08/06 07:54:02;;;;;;;6.18;1.80;;;17.80;99.20;;;;;;5034346;28;20104;-77
2021/08/06 07:56:28;;;;;;;10.75;1.98;;;17.80;99.20;;;;;;5033909;28;20034;-76
2021/08/06 07:58:53;;;;;;;8.15;2.20;;;17.80;98.90;;;;;;5034015;28;20053;-77
2021/08/06 08:01:19;;;;;;;9.68;2.17;;;17.80;98.90;;;;;;5032791;28;20030;-76
2021/08/06 08:03:45;;;;;;;;;;;17.80;99.10;;;;;;5026876;28;20038;-76
2021/08/06 08:06:12;;;;;;;7.68;2.20;;;17.80;98.70;;;;;;5046114;28;19970;-77
2021/08/06 08:08:38;;;;;;;7.80;2.05;;;17.70;98.70;;;;;;5043639;28;20064;-76
2021/08/06 08:11:03;;;;;;;7.47;1.90;;;17.70;98.80;;;;;;5046026;28;20487;-77
2021/08/06 08:13:29;;;;;;;11.43;2.83;;;17.70;98.80;;;;;;5039411;28;20030;-76
2021/08/06 08:15:55;;;;;;;6.00;2.42;;;17.70;98.50;;;;;;5035101;28;20464;-76
2021/08/06 08:18:21;;;;;;;;;;;17.70;98.40;;;;;;5034299;28;20034;-76
2021/08/06 08:20:47;;;;;;;8.00;2.65;;;17.70;98.50;;;;;;5035345;28;19916;-77
2021/08/06 08:23:14;;;;;;;7.60;1.98;;;17.70;98.60;;;;;;5036929;28;20032;-77
2021/08/06 08:25:40;;;;;;;8.55;2.05;;;17.80;98.60;;;;;;5044470;28;20025;-77
2021/08/06 08:28:06;;;;;;;11.50;2.13;;;17.90;98.40;;;;;;5046324;28;20083;-76
2021/08/06 08:30:32;;;;;;;7.65;2.60;;;17.90;98.30;;;;;;5041122;28;20049;-76
2021/08/06 08:32:58;;;;;;;9.40;2.30;;;17.90;98.30;;;;;;5043393;28;20056;-76
2021/08/06 08:35:24;;;;;;;9.52;2.22;;;18.00;98.20;;;;;;5044775;28;20632;-76
2021/08/06 08:37:49;;;;;;;8.98;2.05;;;17.90;98.20;;;;;;5043161;28;20034;-77
2021/08/06 08:40:15;;;;;;;9.05;2.60;;;18.00;98.20;;;;;;5033480;28;20037;-77
2021/08/06 08:42:43;;;;;;;9.32;2.15;;;18.00;98.20;;;;;;5035157;28;20040;-77
2021/08/06 08:45:09;;;;;;;8.02;2.38;;;18.10;98.00;;;;;;5041772;28;20356;-76
2021/08/06 08:47:35;;;;;;;;;;;18.10;98.00;;;;;;5049293;28;20155;-77
2021/08/06 08:50:04;;;;;;;6.20;1.92;;;18.20;97.90;;;;;;5046365;28;19905;-79
2021/08/06 08:52:30;;;;;;;7.57;2.47;;;18.20;97.80;;;;;;5044656;28;20097;-77
2021/08/06 08:54:56;;;;;;;9.48;2.35;;;18.20;97.70;;;;;;5042930;28;20116;-77
2021/08/06 08:57:23;;;;;;;7.18;1.90;;;18.30;97.60;;;;;;5050392;28;20033;-76
2021/08/06 08:59:50;;;;;;;9.50;2.10;;;18.30;97.60;;;;;;5048141;28;20022;-74
2021/08/06 09:02:16;;;;;;;9.00;2.20;;;18.40;97.50;;;;;;5044991;28;20037;-76
2021/08/06 09:04:46;;;;;;;;;;;18.40;97.40;;;;;;5046434;28;20701;-75
2021/08/06 09:07:30;;;;;;;10.55;2.30;;;18.40;97.40;;;;;;5045625;28;20432;-77
2021/08/06 09:10:06;;;;;;;7.25;1.75;;;18.40;97.30;;;;;;5043055;28;20537;-74
2021/08/06 09:12:45;;;;;;;8.90;1.88;;;18.40;97.10;;;;;;5045347;28;20072;-76
2021/08/06 09:15:11;;;;;;;7.63;2.53;;;18.40;97.00;;;;;;5044958;28;20025;-76
2021/08/06 09:17:37;;;;;;;7.00;2.22;;;18.30;97.10;;;;;;5040904;28;20465;-75
2021/08/06 09:20:07;;;;;;;6.93;2.15;;;18.40;97.10;;;;;;5040187;28;20030;-77
2021/08/06 09:22:33;;;;;;;6.18;2.20;;;18.40;97.00;;;;;;5043347;28;20469;-76
2021/08/06 09:25:06;;;;;;;6.10;1.83;;;18.50;97.00;;;;;;5045031;28;20033;-76
2021/08/06 09:27:43;;;;;;;7.10;1.90;;;18.60;96.90;;;;;;5045769;28;20037;-76
2021/08/06 09:30:14;;;;;;;9.77;1.98;;;18.60;96.40;;;;;;5043028;28;20025;-77
2021/08/06 09:33:08;;;;;;;7.20;2.28;;;18.60;96.50;;;;;;5040396;28;20357;-76
2021/08/06 09:35:35;;;;;;;8.27;2.33;;;18.60;96.40;;;;;;5044732;28;20064;-76
2021/08/06 09:38:02;;;;;;;9.02;2.38;;;18.60;96.30;;;;;;5045015;28;20023;-76
2021/08/06 09:40:31;;;;;;;10.68;2.75;;;18.60;96.30;;;;;;5039533;28;20109;-76
2021/08/06 09:43:03;;;;;;;7.80;2.38;;;18.60;96.40;;;;;;5039312;28;20021;-74
2021/08/06 09:45:38;;;;;;;9.75;2.75;;;18.60;96.30;;;;;;5038961;28;20096;-75
2021/08/06 09:48:04;;;;;;;7.50;2.50;;;18.60;96.20;;;;;;5041002;28;20029;-76
2021/08/06 09:50:36;;;;;;;9.82;2.75;;;18.50;96.10;;;;;;5045885;28;20083;-76
2021/08/06 09:53:03;;;;;;;7.28;2.90;;;18.50;96.30;;;;;;5036802;28;20408;-75
2021/08/06 09:55:32;;;;;;;14.77;3.47;;;18.50;96.30;;;;;;5044148;28;20123;-78
2021/08/06 09:58:03;;;;;;;8.82;2.95;;;18.60;96.40;;;;;;5043824;28;20036;-72
2021/08/06 10:00:29;;;;;;;8.50;2.75;;;18.80;96.20;;;;;;5044876;28;20050;-76
2021/08/06 10:02:56;;;;;;;6.72;2.60;;;18.80;95.90;;;;;;5039993;28;20083;-75
2021/08/06 10:05:32;;;;;;;7.30;2.42;;;18.70;95.80;;;;;;5048890;28;20052;-76
2021/08/06 10:08:01;;;;;;;8.68;2.80;;;18.60;95.90;;;;;;5047724;28;20424;-76
2021/08/06 10:10:30;;;;;;;7.93;2.28;;;18.60;96.30;;;;;;5040334;28;20049;-77
2021/08/06 10:12:56;;;;;;;10.05;2.40;;;18.70;96.20;;;;;;5043254;28;20395;-77
2021/08/06 10:15:24;;;;;;;10.23;2.55;;;18.80;96.30;;;;;;5046309;28;20428;-77
2021/08/06 10:17:51;;;;;;;7.68;2.10;;;19.00;96.30;;;;;;5040694;28;20124;-74
2021/08/06 10:20:22;;;;;;;7.97;2.35;;;19.20;96.30;;;;;;5038948;28;20045;-74
2021/08/06 10:22:49;;;;;;;10.23;2.53;;;19.70;96.10;;;;;;5045436;28;20028;-75
2021/08/06 10:25:16;;;;;;;7.18;2.60;;;20.20;95.70;;;;;;5043190;28;20526;-75
2021/08/06 10:27:44;;;;;;;12.00;2.72;;;20.80;95.40;;;;;;5041791;28;20040;-77
2021/08/06 10:30:33;;;;;;;9.90;2.30;;;21.40;94.70;;;;;;5047315;28;20021;-78
2021/08/06 10:33:20;;;;;;;7.28;2.10;;;22.00;93.50;;;;;;5037161;28;20018;-79
2021/08/06 10:35:47;;;;;;;9.85;2.72;;;22.70;92.30;;;;;;5038219;28;20031;-77
2021/08/06 10:38:15;;;;;;;6.00;2.15;;;23.30;91.40;;;;;;5050084;28;20021;-77
2021/08/06 10:40:40;;;;;;;6.47;2.00;;;24.00;90.10;;;;;;5023260;28;20104;-79
2021/08/06 10:43:09;;;;;;;6.68;1.98;;;24.50;88.80;;;;;;5038802;28;20101;-76
2021/08/06 10:45:47;;;;;;;9.32;2.72;;;24.80;85.80;;;;;;5036518;28;20427;-77
2021/08/06 10:48:31;;;;;;;5.03;1.48;;;24.80;83.70;;;;;;5037458;28;20040;-76
2021/08/06 10:51:15;;;;;;;5.32;1.65;;;24.50;80.70;;;;;;5042236;28;20063;-76
2021/08/06 10:53:56;;;;;;;7.13;1.90;;;24.20;80.50;;;;;;5043616;28;20503;-76
2021/08/06 10:56:29;;;;;;;6.63;2.35;;;24.10;79.70;;;;;;5039245;28;20494;-73
2021/08/06 10:59:00;;;;;;;5.85;1.60;;;24.20;80.20;;;;;;5043228;28;20021;-75
2021/08/06 11:01:33;;;;;;;5.57;1.58;;;24.20;77.50;;;;;;5046750;28;20021;-76
2021/08/06 11:04:17;;;;;;;6.63;1.80;;;24.10;77.40;;;;;;5038127;28;20029;-77
2021/08/06 11:06:52;;;;;;;8.35;1.50;;;24.10;78.80;;;;;;5040805;28;20046;-76
2021/08/06 11:09:23;;;;;;;7.78;1.80;;;24.60;78.50;;;;;;5045843;28;20399;-76
2021/08/06 11:11:49;;;;;;;5.18;1.63;;;25.20;76.20;;;;;;5043847;28;20029;-77
2021/08/06 11:14:35;;;;;;;5.65;1.58;;;25.30;74.20;;;;;;5045302;28;20034;-76
2021/08/06 11:17:20;;;;;;;9.32;1.80;;;25.60;73.90;;;;;;5044729;28;20491;-77
2021/08/06 11:20:06;;;;;;;4.78;1.30;;;25.90;73.30;;;;;;5041912;28;20052;-77
2021/08/06 11:22:35;;;;;;;5.85;1.88;;;25.70;71.10;;;;;;5039331;28;20372;-80
2021/08/06 11:25:27;;;;;;;7.10;1.63;;;25.80;72.00;;;;;;5040111;28;20017;-78
2021/08/06 11:28:00;;;;;;;5.50;1.48;;;26.20;70.70;;;;;;5046345;28;20091;-79
2021/08/06 11:30:28;;;;;;;4.78;1.20;;;26.40;68.40;;;;;;5047695;28;20456;-80
2021/08/06 11:33:04;;;;;;;4.78;1.55;;;26.10;68.40;;;;;;5046159;28;20624;-73
2021/08/06 11:35:31;;;;;;;5.28;1.20;;;25.90;68.70;;;;;;5042374;28;20072;-77
2021/08/06 11:38:03;;;;;;;4.60;1.40;;;26.30;69.10;;;;;;5041271;28;20057;-77
2021/08/06 11:40:34;;;;;;;5.07;1.40;;;26.40;66.60;;;;;;5042393;28;20045;-78
2021/08/06 11:43:19;;;;;;;3.42;1.10;;;26.50;66.90;;;;;;5019332;28;20141;-79
2021/08/06 11:45:48;;;;;;;3.63;0.93;;;26.50;66.00;;;;;;5046891;28;20022;-76
2021/08/06 11:48:14;;;;;;;4.57;1.20;;;26.60;66.30;;;;;;5048746;28;20037;-79
2021/08/06 11:50:48;;;;;;;3.20;0.82;;;27.00;67.30;;;;;;5043379;28;20018;-76
2021/08/06 11:53:19;;;;;;;4.55;1.23;;;27.00;66.40;;;;;;5040076;28;20029;-77
2021/08/06 11:55:47;;;;;;;3.50;0.90;;;26.00;66.40;;;;;;5042515;28;20017;-78
2021/08/06 11:58:14;;;;;;;2.65;0.80;;;25.20;68.30;;;;;;5045720;28;20080;-83
2021/08/06 12:00:43;;;;;;;5.82;1.13;;;24.70;69.60;;;;;;5029699;28;20332;-78
2021/08/06 12:03:12;;;;;;;3.50;0.80;;;24.20;70.20;;;;;;5052160;28;20376;-77
2021/08/06 12:05:46;;;;;;;4.25;1.15;;;23.70;71.00;;;;;;5041887;28;20036;-78
2021/08/06 12:08:22;;;;;;;2.22;0.52;;;23.20;72.40;;;;;;5041146;28;20021;-76
2021/08/06 12:11:07;;;;;;;3.20;0.80;;;22.90;73.60;;;;;;5042281;28;20021;-76
2021/08/06 12:13:37;;;;;;;3.42;1.33;;;22.80;74.50;;;;;;5042659;28;20268;-77
2021/08/06 12:16:06;;;;;;;4.78;1.65;;;22.60;74.20;;;;;;5050641;28;20032;-76
2021/08/06 12:18:37;;;;;;;5.78;2.05;;;22.40;74.80;;;;;;5044397;28;20025;-75
2021/08/06 12:21:16;;;;;;;4.10;0.93;;;22.40;75.60;;;;;;5052316;28;20090;-75
2021/08/06 12:23:45;;;;;;;4.32;0.70;;;22.30;75.70;;;;;;5034825;28;20032;-77
2021/08/06 12:26:16;;;;;;;1.83;0.80;;;22.30;75.90;;;;;;5035280;28;20030;-76
2021/08/06 12:28:44;;;;;;;2.08;0.73;;;22.20;75.80;;;;;;5033315;28;20041;-76
2021/08/06 12:31:12;;;;;;;5.78;1.00;;;22.00;76.30;;;;;;5035113;28;20021;-76
2021/08/06 12:33:39;;;;;;;2.75;0.82;;;21.60;78.20;;;;;;5033496;28;20518;-76
2021/08/06 12:36:17;;;;;;;2.85;0.82;;;21.40;79.50;;;;;;5038470;28;20037;-77
2021/08/06 12:38:50;;;;;;;4.68;1.20;;;21.50;81.00;;;;;;5042992;28;20022;-77
2021/08/06 12:41:28;;;;;;;2.35;0.90;;;21.90;81.30;;;;;;5045839;28;20025;-77
2021/08/06 12:44:26;;;;;;;2.08;0.73;;;22.10;80.00;;;;;;5043841;28;20412;-77
2021/08/06 12:47:01;;;;;;;3.30;0.95;;;21.90;79.30;;;;;;5045217;28;20017;-78
2021/08/06 12:49:48;;;;;;;2.22;0.60;;;21.70;80.10;;;;;;5049104;28;20437;-76
2021/08/06 12:52:18;;;;;;;;;;;21.70;80.20;;;;;;5029824;28;20042;-76
2021/08/06 12:54:55;;;;;;;2.72;0.95;;;21.50;80.40;;;;;;5045902;28;20317;-77
2021/08/06 12:57:54;;;;;;;3.28;0.90;;;21.20;80.90;;;;;;5047411;28;20032;-78